createdAt,value
2022-08-05T00:01:28.612Z,57.70
2022-08-05T00:03:56.998Z,57.70
2022-08-05T00:06:29.128Z,57.70
2022-08-05T00:08:59.451Z,58.10
2022-08-05T00:11:30.665Z,57.30
2022-08-05T00:16:36.417Z,57.90
2022-08-05T00:19:15.210Z,57.70
2022-08-05T00:21:42.568Z,57.80
2022-08-05T00:24:10.334Z,57.80
2022-08-05T00:26:37.647Z,58.00
2022-08-05T00:29:04.129Z,57.70
2022-08-05T00:31:54.066Z,57.90
2022-08-05T00:34:54.742Z,57.80
2022-08-05T00:37:12.294Z,57.90
2022-08-05T00:42:11.133Z,58.00
2022-08-05T00:44:57.593Z,57.90
2022-08-05T00:47:24.160Z,57.70
2022-08-05T00:49:51.381Z,57.50
2022-08-05T00:52:18.033Z,58.00
2022-08-05T00:54:44.517Z,58.10
2022-08-05T00:59:44.189Z,57.70
2022-08-05T01:02:10.965Z,57.70
2022-08-05T01:04:37.846Z,57.70
2022-08-05T01:07:08.714Z,57.40
2022-08-05T01:09:40.303Z,57.40
2022-08-05T01:12:18.080Z,57.70
2022-08-05T01:14:45.520Z,57.70
2022-08-05T01:20:00.949Z,57.10
2022-08-05T01:22:27.915Z,57.30
2022-08-05T01:24:54.729Z,57.40
2022-08-05T01:27:22.193Z,57.50
2022-08-05T01:29:48.754Z,57.40
2022-08-05T01:32:18.699Z,57.50
2022-08-05T01:34:45.268Z,57.50
2022-08-05T01:37:24.852Z,58.10
2022-08-05T01:39:51.884Z,57.70
2022-08-05T01:42:20.635Z,57.70
2022-08-05T01:44:53.814Z,57.40
2022-08-05T01:47:21.216Z,57.40
2022-08-05T01:50:02.197Z,57.20
2022-08-05T01:52:29.546Z,57.20
2022-08-05T01:54:56.817Z,57.60
2022-08-05T01:58:10.897Z,57.40
2022-08-05T02:02:38.687Z,57.40
2022-08-05T02:07:56.322Z,57.30
2022-08-05T02:10:28.679Z,57.40
2022-08-05T02:18:31.448Z,57.10
2022-08-05T02:20:39.143Z,57.70
2022-08-05T02:23:05.720Z,57.20
2022-08-05T02:25:48.909Z,57.40
2022-08-05T02:30:54.196Z,56.80
2022-08-05T02:33:24.474Z,56.90
2022-08-05T02:36:02.776Z,57.00
2022-08-05T02:38:35.249Z,57.10
2022-08-05T02:41:14.495Z,57.00
2022-08-05T02:44:06.370Z,56.90
2022-08-05T02:46:30.346Z,57.40
2022-08-05T02:48:56.871Z,57.50
2022-08-05T02:51:28.446Z,57.10
2022-08-05T02:56:36.750Z,57.20
2022-08-05T02:59:09.935Z,57.30
2022-08-05T03:01:37.081Z,57.20
2022-08-05T03:04:13.987Z,57.40
2022-08-05T03:06:56.939Z,57.20
2022-08-05T03:09:36.126Z,57.70
2022-08-05T03:12:03.050Z,57.60
2022-08-05T03:14:29.494Z,57.10
2022-08-05T03:16:57.088Z,57.60
2022-08-05T03:19:34.096Z,57.00
2022-08-05T03:22:01.187Z,56.70
2022-08-05T03:24:30.046Z,57.00
2022-08-05T03:29:24.167Z,57.10
2022-08-05T03:32:10.624Z,56.90
2022-08-05T03:34:37.402Z,57.00
2022-08-05T03:37:06.214Z,57.10
2022-08-05T03:39:37.848Z,56.70
2022-08-05T03:42:04.813Z,57.20
2022-08-05T03:46:58.731Z,56.90
2022-08-05T03:49:31.215Z,57.60
2022-08-05T03:52:38.146Z,57.10
2022-08-05T03:57:45.448Z,57.00
2022-08-05T04:00:12.235Z,57.20
2022-08-05T04:05:18.906Z,57.10
2022-08-05T04:07:58.296Z,56.40
2022-08-05T04:12:54.494Z,57.10
2022-08-05T04:15:21.274Z,56.40
2022-08-05T04:17:56.236Z,57.30
2022-08-05T04:20:23.949Z,55.50
2022-08-05T04:22:50.389Z,55.20
2022-08-05T04:25:17.017Z,55.20
2022-08-05T04:27:57.283Z,54.80
2022-08-05T04:30:26.473Z,56.20
2022-08-05T04:32:53.131Z,56.80
2022-08-05T04:35:20.023Z,57.20
2022-08-05T04:38:00.979Z,56.10
2022-08-05T04:40:29.504Z,56.00
2022-08-05T04:42:55.977Z,56.60
2022-08-05T04:45:31.023Z,57.10
2022-08-05T04:51:03.195Z,56.50
2022-08-05T04:53:29.475Z,56.70
2022-08-05T04:56:33.341Z,56.30
2022-08-05T04:58:46.848Z,55.80
2022-08-05T05:01:13.479Z,57.20
2022-08-05T05:06:36.191Z,57.20
2022-08-05T05:08:55.333Z,57.20
2022-08-05T05:16:15.933Z,56.50
2022-08-05T05:19:08.917Z,56.30
2022-08-05T05:21:32.992Z,55.30
2022-08-05T05:24:02.830Z,56.40
2022-08-05T05:26:32.968Z,55.70
2022-08-05T05:31:26.596Z,56.30
2022-08-05T05:33:57.209Z,56.70
2022-08-05T05:38:56.606Z,56.50
2022-08-05T05:41:23.584Z,57.00
2022-08-05T05:46:25.203Z,56.90
2022-08-05T05:53:54.062Z,56.60
2022-08-05T05:56:31.860Z,56.40
2022-08-05T05:59:02.901Z,56.50
2022-08-05T06:01:37.406Z,57.00
2022-08-05T06:04:04.781Z,56.20
2022-08-05T06:08:59.753Z,56.70
2022-08-05T06:11:26.224Z,56.60
2022-08-05T06:16:30.015Z,56.40
2022-08-05T06:19:00.260Z,56.70
2022-08-05T06:21:35.785Z,56.30
2022-08-05T06:24:04.488Z,56.40
2022-08-05T06:26:33.925Z,56.30
2022-08-05T06:31:32.888Z,57.00
2022-08-05T06:36:37.502Z,57.60
2022-08-05T06:39:21.675Z,57.50
2022-08-05T06:44:15.375Z,57.20
2022-08-05T06:46:41.910Z,57.40
2022-08-05T06:51:36.033Z,57.60
2022-08-05T06:54:07.364Z,57.50
2022-08-05T06:59:01.823Z,57.20
2022-08-05T07:01:32.647Z,57.20
2022-08-05T07:06:27.629Z,57.00
2022-08-05T07:08:55.226Z,56.70
2022-08-05T07:13:58.305Z,56.40
2022-08-05T07:17:57.091Z,56.70
2022-08-05T07:19:15.474Z,56.60
2022-08-05T07:22:00.262Z,55.70
2022-08-05T07:24:28.757Z,55.50
2022-08-05T07:29:25.334Z,54.80
2022-08-05T07:32:09.875Z,54.60
2022-08-05T07:37:11.459Z,54.60
2022-08-05T07:40:04.052Z,54.40
2022-08-05T07:44:58.384Z,53.70
2022-08-05T07:49:54.370Z,53.30
2022-08-05T07:54:49.308Z,53.20
2022-08-05T07:57:51.343Z,53.70
2022-08-05T08:02:31.365Z,54.00
2022-08-05T08:05:15.756Z,54.50
2022-08-05T08:12:52.785Z,54.30
2022-08-05T08:16:33.670Z,53.10
2022-08-05T08:24:01.279Z,54.50
2022-08-05T08:28:59.144Z,53.90
2022-08-05T08:31:27.239Z,54.00
2022-08-05T08:33:53.699Z,53.90
2022-08-05T08:36:38.105Z,53.00
2022-08-05T08:39:06.681Z,53.00
2022-08-05T08:41:51.824Z,53.30
2022-08-05T08:45:24.811Z,53.40
2022-08-05T08:47:47.103Z,53.60
2022-08-05T08:50:22.347Z,53.30
2022-08-05T08:52:47.388Z,53.50
2022-08-05T08:55:19.557Z,52.40
2022-08-05T08:58:04.464Z,52.70
2022-08-05T09:00:30.944Z,53.20
2022-08-05T09:02:58.454Z,53.50
2022-08-05T09:05:38.572Z,54.40
2022-08-05T09:08:12.232Z,53.80
2022-08-05T09:10:38.691Z,52.80
2022-08-05T09:13:06.706Z,53.80
2022-08-05T09:15:37.022Z,54.00
2022-08-05T09:18:03.664Z,54.10
2022-08-05T09:20:37.736Z,54.00
2022-08-05T09:26:03.068Z,53.90
2022-08-05T09:28:22.349Z,52.90
2022-08-05T09:30:49.336Z,52.20
2022-08-05T09:33:17.193Z,52.00
2022-08-05T09:35:43.748Z,53.20
2022-08-05T09:38:16.773Z,53.30
2022-08-05T09:40:52.459Z,52.70
2022-08-05T09:43:20.396Z,52.70
2022-08-05T09:46:06.996Z,52.90
2022-08-05T09:48:33.334Z,52.40
2022-08-05T09:51:00.186Z,52.40
2022-08-05T09:53:53.871Z,51.60
2022-08-05T09:56:17.555Z,51.30
2022-08-05T09:58:45.477Z,51.80
2022-08-05T10:01:31.955Z,51.70
2022-08-05T10:03:59.968Z,53.10
2022-08-05T10:06:26.816Z,53.50
2022-08-05T10:08:55.550Z,52.80
2022-08-05T10:11:22.186Z,52.70
2022-08-05T10:13:49.516Z,52.80
2022-08-05T10:16:21.263Z,52.30
2022-08-05T10:18:48.142Z,52.50
2022-08-05T10:21:15.701Z,52.50
2022-08-05T10:26:31.598Z,53.00
2022-08-05T10:32:55.363Z,52.60
2022-08-05T10:34:12.732Z,52.60
2022-08-05T10:36:40.027Z,52.40
2022-08-05T10:39:10.405Z,52.90
2022-08-05T10:41:46.513Z,52.60
2022-08-05T10:44:13.665Z,53.00
2022-08-05T10:49:10.079Z,52.90
2022-08-05T10:51:36.996Z,53.50
2022-08-05T10:54:28.477Z,53.20
2022-08-05T11:00:02.639Z,53.30
2022-08-05T11:02:14.593Z,53.40
2022-08-05T11:07:32.966Z,53.00
2022-08-05T11:10:10.394Z,53.50
2022-08-05T11:12:38.303Z,53.40
2022-08-05T11:15:19.289Z,54.20
2022-08-05T11:17:59.859Z,54.30
2022-08-05T11:20:28.234Z,53.70
2022-08-05T11:22:58.066Z,54.50
2022-08-05T11:26:06.035Z,53.60
2022-08-05T11:28:17.164Z,53.80
2022-08-05T11:33:13.857Z,53.90
2022-08-05T11:36:02.895Z,53.60
2022-08-05T11:41:35.397Z,54.10
2022-08-05T11:46:34.314Z,53.90
2022-08-05T11:49:01.473Z,54.50
2022-08-05T11:51:44.138Z,54.70
2022-08-05T11:54:14.484Z,53.70
2022-08-05T11:56:41.391Z,54.20
2022-08-05T11:59:13.858Z,53.80
2022-08-05T12:01:40.433Z,53.90
2022-08-05T12:04:06.887Z,54.30
2022-08-05T12:06:33.335Z,54.10
2022-08-05T12:08:59.791Z,54.20
2022-08-05T12:11:28.362Z,53.80
2022-08-05T12:14:06.526Z,54.40
2022-08-05T12:16:33.570Z,54.40
2022-08-05T12:19:05.069Z,54.60
2022-08-05T12:21:39.199Z,54.30
2022-08-05T12:26:33.649Z,55.30
2022-08-05T12:29:01.342Z,54.60
2022-08-05T12:31:42.411Z,54.70
2022-08-05T12:34:20.494Z,54.30
2022-08-05T12:36:48.214Z,54.50
2022-08-05T12:39:14.691Z,54.60
2022-08-05T12:41:43.585Z,54.70
2022-08-05T12:44:11.599Z,55.10
2022-08-05T12:46:41.030Z,54.60
2022-08-05T12:49:13.410Z,54.80
2022-08-05T12:52:12.389Z,54.40
2022-08-05T12:54:26.833Z,54.50
2022-08-05T12:59:21.061Z,54.70
2022-08-05T13:02:02.358Z,54.80
2022-08-05T13:07:00.490Z,55.40
2022-08-05T13:09:28.858Z,54.90
2022-08-05T13:12:02.539Z,54.30
2022-08-05T13:14:36.608Z,54.50
2022-08-05T13:19:51.668Z,54.90
2022-08-05T13:22:28.314Z,55.20
2022-08-05T13:27:38.341Z,54.90
2022-08-05T13:30:34.318Z,55.00
2022-08-05T13:32:51.751Z,55.20
2022-08-05T13:35:22.191Z,54.80
2022-08-05T13:37:58.063Z,54.80
2022-08-05T13:40:50.027Z,55.00
2022-08-05T13:43:22.199Z,54.70
2022-08-05T13:45:48.846Z,55.00
2022-08-05T13:51:04.317Z,54.90
2022-08-05T13:53:31.163Z,55.20
2022-08-05T13:58:30.905Z,55.30
2022-08-05T14:00:57.626Z,55.20
2022-08-05T14:03:24.229Z,55.30
2022-08-05T14:06:25.255Z,55.00
2022-08-05T14:08:37.181Z,55.50
2022-08-05T14:11:20.450Z,55.10
2022-08-05T14:13:48.304Z,55.40
2022-08-05T14:16:16.932Z,55.10
2022-08-05T14:18:45.621Z,55.40
2022-08-05T14:22:07.295Z,55.70
2022-08-05T14:26:36.843Z,55.50
2022-08-05T14:29:16.268Z,56.30
2022-08-05T14:32:03.831Z,55.40
2022-08-05T14:34:29.848Z,55.70
2022-08-05T14:42:19.205Z,55.90
2022-08-05T14:44:42.491Z,56.40
2022-08-05T14:47:09.382Z,55.50
2022-08-05T14:49:59.450Z,55.70
2022-08-05T14:52:50.361Z,55.60
2022-08-05T14:55:08.721Z,55.40
2022-08-05T15:00:21.414Z,55.20
2022-08-05T15:02:54.773Z,56.10
2022-08-05T15:05:21.252Z,55.50
2022-08-05T15:08:13.201Z,55.70
2022-08-05T15:13:04.260Z,55.90
2022-08-05T15:15:55.076Z,55.80
2022-08-05T15:18:17.615Z,55.70
2022-08-05T15:20:44.052Z,55.50
2022-08-05T15:23:12.502Z,55.80
2022-08-05T15:25:51.696Z,55.60
2022-08-05T15:28:20.422Z,55.90
2022-08-05T15:30:53.453Z,55.80
2022-08-05T15:34:04.111Z,55.70
2022-08-05T15:36:06.325Z,56.30
2022-08-05T15:38:43.761Z,56.10
2022-08-05T15:41:22.096Z,55.80
2022-08-05T15:43:50.008Z,56.60
2022-08-05T15:46:16.567Z,56.40
2022-08-05T15:48:52.718Z,55.90
2022-08-05T15:52:12.812Z,56.30
2022-08-05T15:54:11.415Z,56.20
2022-08-05T15:56:41.795Z,57.20
2022-08-05T16:01:39.881Z,56.90
2022-08-05T16:04:19.491Z,56.30
2022-08-05T16:06:45.955Z,56.80
2022-08-05T16:09:12.413Z,56.20
2022-08-05T16:11:42.560Z,56.70
2022-08-05T16:14:10.003Z,56.90
2022-08-05T16:16:43.975Z,56.50
2022-08-05T16:19:12.529Z,56.40
2022-08-05T16:22:00.446Z,57.20
2022-08-05T16:24:40.087Z,56.60
2022-08-05T16:27:08.647Z,57.10
2022-08-05T16:29:37.339Z,56.40
2022-08-05T16:32:04.359Z,56.90
2022-08-05T16:34:31.121Z,57.30
2022-08-05T16:40:05.594Z,56.70
2022-08-05T16:42:14.655Z,57.30
2022-08-05T16:44:44.294Z,56.60
2022-08-05T16:47:24.783Z,56.80
2022-08-05T16:49:57.298Z,57.20
2022-08-05T16:52:23.919Z,56.50
2022-08-05T16:54:59.146Z,56.60
2022-08-05T16:57:30.131Z,56.70
2022-08-05T17:00:12.026Z,57.70
2022-08-05T17:05:07.588Z,56.70
2022-08-05T17:07:43.446Z,56.60
2022-08-05T17:10:13.694Z,56.30
2022-08-05T17:12:50.511Z,56.50
2022-08-05T17:15:19.559Z,56.40
2022-08-05T17:17:48.873Z,56.50
2022-08-05T17:20:21.374Z,56.50
2022-08-05T17:22:47.838Z,56.50
2022-08-05T17:25:33.884Z,56.50
2022-08-05T17:28:06.226Z,56.50
2022-08-05T17:30:34.274Z,56.70
2022-08-05T17:33:16.680Z,56.30
2022-08-05T17:36:07.770Z,56.50
2022-08-05T17:38:29.553Z,56.50
2022-08-05T17:40:56.006Z,57.70
2022-08-05T17:43:46.961Z,57.20
2022-08-05T17:46:10.294Z,56.70
2022-08-05T17:48:36.869Z,57.00
2022-08-05T17:51:03.317Z,56.50
2022-08-05T17:53:35.967Z,56.80
2022-08-05T17:56:03.381Z,56.70
2022-08-05T17:58:32.701Z,56.50
2022-08-05T18:00:59.347Z,56.50
2022-08-05T18:06:15.269Z,56.90
2022-08-05T18:08:44.928Z,56.70
2022-08-05T18:13:51.401Z,56.70
2022-08-05T18:16:20.253Z,56.50
2022-08-05T18:18:47.849Z,56.90
2022-08-05T18:21:19.835Z,56.50
2022-08-05T18:23:49.144Z,57.40
2022-08-05T18:26:20.467Z,56.50
2022-08-05T18:28:46.917Z,56.70
2022-08-05T18:33:47.198Z,57.20
2022-08-05T18:36:16.301Z,56.90
2022-08-05T18:38:45.597Z,56.40
2022-08-05T18:41:53.691Z,56.30
2022-08-05T18:43:58.563Z,56.00
2022-08-05T18:46:33.043Z,56.30
2022-08-05T18:48:59.526Z,56.40
2022-08-05T18:52:04.324Z,56.50
2022-08-05T18:54:12.431Z,56.60
2022-08-05T18:56:39.685Z,56.50
2022-08-05T18:59:44.142Z,56.50
2022-08-05T19:01:58.001Z,56.40
2022-08-05T19:04:25.097Z,56.60
2022-08-05T19:06:51.645Z,56.50
2022-08-05T19:12:01.003Z,56.40
2022-08-05T19:14:59.280Z,56.50
2022-08-05T19:19:47.124Z,56.70
2022-08-05T19:22:22.700Z,56.40
2022-08-05T19:27:23.324Z,55.90
2022-08-05T19:29:49.917Z,56.40
2022-08-05T19:34:54.589Z,56.30
2022-08-05T19:37:22.202Z,56.10
2022-08-05T19:42:35.780Z,56.50
2022-08-05T19:45:02.860Z,56.30
2022-08-05T19:47:32.589Z,56.60
2022-08-05T19:50:00.422Z,56.40
2022-08-05T19:54:58.422Z,56.20
2022-08-05T19:57:46.359Z,56.30
2022-08-05T20:00:13.623Z,56.60
2022-08-05T20:02:40.089Z,57.30
2022-08-05T20:07:46.196Z,57.00
2022-08-05T20:12:46.146Z,56.50
2022-08-05T20:15:14.353Z,56.50
2022-08-05T20:17:40.797Z,56.40
2022-08-05T20:20:11.146Z,56.20
2022-08-05T20:22:37.656Z,56.40
2022-08-05T20:25:07.973Z,56.10
2022-08-05T20:30:08.476Z,56.00
2022-08-05T20:32:34.948Z,56.50
2022-08-05T20:35:02.621Z,56.00
2022-08-05T20:38:07.873Z,56.50
2022-08-05T20:40:15.537Z,56.50
2022-08-05T20:42:44.489Z,56.20
2022-08-05T20:45:10.931Z,56.00
2022-08-05T20:50:07.541Z,56.30
2022-08-05T20:52:34.143Z,56.10
2022-08-05T20:55:56.731Z,56.30
2022-08-05T21:00:40.709Z,56.30
2022-08-05T21:03:01.285Z,56.10
2022-08-05T21:05:38.014Z,56.70
2022-08-05T21:08:14.558Z,56.00
2022-08-05T21:10:41.000Z,56.30
2022-08-05T21:13:26.354Z,56.00
2022-08-05T21:16:02.133Z,56.30
2022-08-05T21:18:30.218Z,56.00
2022-08-05T21:20:57.214Z,56.00
2022-08-05T21:23:23.663Z,56.50
2022-08-05T21:25:50.598Z,55.80
2022-08-05T21:30:45.047Z,56.60
2022-08-05T21:33:22.439Z,56.30
2022-08-05T21:35:58.188Z,56.40
2022-08-05T21:40:52.667Z,56.00
2022-08-05T21:43:24.615Z,56.00
2022-08-05T21:45:56.548Z,56.50
2022-08-05T21:48:24.444Z,56.00
2022-08-05T21:50:53.156Z,55.90
2022-08-05T21:53:20.893Z,56.10
2022-08-05T21:56:05.441Z,55.80
2022-08-05T21:58:33.882Z,56.20
2022-08-05T22:03:52.363Z,56.30
2022-08-05T22:06:13.949Z,56.10
2022-08-05T22:11:09.142Z,56.40
2022-08-05T22:14:19.693Z,56.30
2022-08-05T22:19:15.231Z,56.40
2022-08-05T22:21:54.459Z,56.30
2022-08-05T22:24:40.593Z,56.30
2022-08-05T22:27:10.801Z,55.90
2022-08-05T22:29:40.589Z,56.10
2022-08-05T22:37:03.850Z,56.30
2022-08-05T22:39:33.903Z,56.60
2022-08-05T22:44:36.554Z,56.10
2022-08-05T22:47:05.685Z,55.80
2022-08-05T22:50:20.932Z,56.00
2022-08-05T22:52:30.386Z,56.00
2022-08-05T22:54:59.322Z,56.20
2022-08-05T22:59:54.288Z,56.20
2022-08-05T23:04:56.414Z,56.00
2022-08-05T23:09:53.262Z,55.90
2022-08-05T23:14:55.201Z,55.90
2022-08-05T23:17:24.628Z,56.00
2022-08-05T23:22:29.037Z,56.20
2022-08-05T23:27:24.356Z,56.30
2022-08-05T23:29:58.033Z,56.20
2022-08-05T23:32:24.735Z,55.90
2022-08-05T23:34:53.619Z,56.00
2022-08-05T23:37:20.061Z,56.00
2022-08-05T23:39:53.637Z,55.90
2022-08-05T23:42:23.469Z,55.70
2022-08-05T23:44:55.942Z,56.10
2022-08-05T23:49:52.195Z,55.50
2022-08-05T23:52:22.250Z,55.80
2022-08-05T23:54:51.840Z,55.90
2022-08-05T23:57:18.769Z,56.00
